createdAt,value
2019-05-21T00:00:57.342Z,13.43
2019-05-21T00:03:08.190Z,13.45
2019-05-21T00:05:19.010Z,13.45
2019-05-21T00:07:29.868Z,13.40
2019-05-21T00:09:40.732Z,13.41
2019-05-21T00:11:51.566Z,13.40
2019-05-21T00:14:02.504Z,13.38
2019-05-21T00:16:13.319Z,13.41
2019-05-21T00:18:26.133Z,13.44
2019-05-21T00:20:36.953Z,13.42
2019-05-21T00:22:48.107Z,13.42
2019-05-21T00:24:59.032Z,13.40
2019-05-21T00:27:09.858Z,13.36
2019-05-21T00:29:58.046Z,13.39
2019-05-21T00:32:46.150Z,13.39
2019-05-21T00:35:49.013Z,13.41
2019-05-21T00:38:37.377Z,13.41
2019-05-21T00:41:25.864Z,13.43
2019-05-21T00:43:49.619Z,13.40
2019-05-21T00:46:00.529Z,13.41
2019-05-21T00:48:11.346Z,13.38
2019-05-21T00:50:22.208Z,13.41
2019-05-21T00:52:33.041Z,13.41
2019-05-21T00:54:43.986Z,13.41
2019-05-21T00:56:54.818Z,13.42
2019-05-21T00:59:05.661Z,13.43
2019-05-21T01:01:16.487Z,13.45
2019-05-21T01:03:27.326Z,13.46
2019-05-21T01:05:38.151Z,13.41
2019-05-21T01:07:48.981Z,13.36
2019-05-21T01:09:59.812Z,13.37
2019-05-21T01:12:10.688Z,13.33
2019-05-21T01:14:21.525Z,13.31
2019-05-21T01:16:34.549Z,13.33
2019-05-21T01:18:45.512Z,13.32
2019-05-21T01:20:56.348Z,13.26
2019-05-21T01:23:07.160Z,13.27
2019-05-21T01:25:18.042Z,13.27
2019-05-21T01:27:28.839Z,13.25
2019-05-21T01:29:39.674Z,13.28
2019-05-21T01:31:50.515Z,13.21
2019-05-21T01:34:01.364Z,13.25
2019-05-21T01:36:12.248Z,13.27
2019-05-21T01:38:23.076Z,13.28
2019-05-21T01:40:33.920Z,13.18
2019-05-21T01:42:44.779Z,13.15
2019-05-21T01:44:55.583Z,13.13
2019-05-21T01:47:06.442Z,13.10
2019-05-21T01:49:17.256Z,13.08
2019-05-21T01:51:28.090Z,13.08
2019-05-21T01:53:38.906Z,13.11
2019-05-21T01:55:49.781Z,13.08
2019-05-21T01:58:00.595Z,13.06
2019-05-21T02:00:11.626Z,13.06
2019-05-21T02:02:22.513Z,13.05
2019-05-21T02:04:33.391Z,13.02
2019-05-21T02:06:45.097Z,13.03
2019-05-21T02:08:57.824Z,13.02
2019-05-21T02:11:08.658Z,13.01
2019-05-21T02:13:19.473Z,13.00
2019-05-21T02:15:30.399Z,12.97
2019-05-21T02:17:41.243Z,13.01
2019-05-21T02:19:52.249Z,12.97
2019-05-21T02:22:03.192Z,12.96
2019-05-21T02:24:14.016Z,12.98
2019-05-21T02:26:24.865Z,12.93
2019-05-21T02:28:37.608Z,12.92
2019-05-21T02:30:48.406Z,12.93
2019-05-21T02:32:59.261Z,12.91
2019-05-21T02:35:10.195Z,12.91
2019-05-21T02:37:21.022Z,12.91
2019-05-21T02:39:31.842Z,12.90
2019-05-21T02:41:42.654Z,12.91
2019-05-21T02:43:53.503Z,12.90
2019-05-21T02:46:04.430Z,12.88
2019-05-21T02:48:15.270Z,12.84
2019-05-21T02:50:26.098Z,12.83
2019-05-21T02:52:36.926Z,12.83
2019-05-21T02:54:47.874Z,12.87
2019-05-21T02:56:58.874Z,12.84
2019-05-21T02:59:09.973Z,12.88
2019-05-21T03:01:25.716Z,12.86
2019-05-21T03:03:36.942Z,12.84
2019-05-21T03:05:47.759Z,12.83
2019-05-21T03:07:58.594Z,12.79
2019-05-21T03:10:09.519Z,12.78
2019-05-21T03:12:20.511Z,12.82
2019-05-21T03:14:31.419Z,12.83
2019-05-21T03:16:42.272Z,12.85
2019-05-21T03:18:53.133Z,12.86
2019-05-21T03:21:03.965Z,12.81
2019-05-21T03:23:14.894Z,12.98
2019-05-21T03:25:25.721Z,12.96
2019-05-21T03:27:36.529Z,12.90
2019-05-21T03:29:47.378Z,12.88
2019-05-21T03:31:58.431Z,12.89
2019-05-21T03:34:09.398Z,12.87
2019-05-21T03:36:32.507Z,12.83
2019-05-21T03:38:32.958Z,12.82
2019-05-21T03:40:44.026Z,12.81
2019-05-21T03:42:54.845Z,12.79
2019-05-21T03:45:08.103Z,12.81
2019-05-21T03:47:19.392Z,12.78
2019-05-21T03:49:30.633Z,12.78
2019-05-21T03:51:41.464Z,12.80
2019-05-21T03:53:52.335Z,12.72
2019-05-21T03:56:03.163Z,12.75
2019-05-21T03:58:14.080Z,12.78
2019-05-21T04:00:24.928Z,12.76
2019-05-21T04:02:35.991Z,12.73
2019-05-21T04:04:46.820Z,12.70
2019-05-21T04:06:57.749Z,12.68
2019-05-21T04:09:08.589Z,12.69
2019-05-21T04:11:19.427Z,12.60
2019-05-21T04:13:30.272Z,12.62
2019-05-21T04:15:49.225Z,12.55
2019-05-21T04:18:04.736Z,12.58
2019-05-21T04:20:15.579Z,12.63
2019-05-21T04:22:26.508Z,12.60
2019-05-21T04:24:37.310Z,12.63
2019-05-21T04:26:48.192Z,12.62
2019-05-21T04:28:59.052Z,12.64
2019-05-21T04:31:09.918Z,12.64
2019-05-21T04:33:20.759Z,12.64
2019-05-21T04:35:31.618Z,12.65
2019-05-21T04:37:42.433Z,12.64
2019-05-21T04:39:53.350Z,12.66
2019-05-21T04:42:04.283Z,12.61
2019-05-21T04:44:15.110Z,12.64
2019-05-21T04:46:25.961Z,12.65
2019-05-21T04:48:38.684Z,12.66
2019-05-21T04:50:51.508Z,12.63
2019-05-21T04:53:02.540Z,12.65
2019-05-21T04:55:13.373Z,12.65
2019-05-21T04:57:24.221Z,12.62
2019-05-21T04:59:35.030Z,12.59
2019-05-21T05:01:45.880Z,12.60
2019-05-21T05:03:56.708Z,12.65
2019-05-21T05:06:07.652Z,12.66
2019-05-21T05:08:18.589Z,12.67
2019-05-21T05:10:29.580Z,12.72
2019-05-21T05:12:42.341Z,12.67
2019-05-21T05:14:53.214Z,12.67
2019-05-21T05:17:04.035Z,12.64
2019-05-21T05:19:14.859Z,12.62
2019-05-21T05:21:25.672Z,12.63
2019-05-21T05:23:36.516Z,12.64
2019-05-21T05:25:47.358Z,12.64
2019-05-21T05:27:58.294Z,12.64
2019-05-21T05:30:09.603Z,12.62
2019-05-21T05:32:20.444Z,12.59
2019-05-21T05:34:31.332Z,12.61
2019-05-21T05:36:42.375Z,12.58
2019-05-21T05:38:53.258Z,12.58
2019-05-21T05:41:04.187Z,12.56
2019-05-21T05:43:15.014Z,12.49
2019-05-21T05:45:25.816Z,12.47
2019-05-21T05:47:36.666Z,12.45
2019-05-21T05:49:52.162Z,12.40
2019-05-21T05:52:03.130Z,12.34
2019-05-21T05:54:13.992Z,12.36
2019-05-21T05:56:28.016Z,12.41
2019-05-21T05:58:38.866Z,12.40
2019-05-21T06:00:49.870Z,12.39
2019-05-21T06:03:00.771Z,12.38
2019-05-21T06:05:12.001Z,12.39
2019-05-21T06:07:22.875Z,12.37
2019-05-21T06:09:33.724Z,12.32
2019-05-21T06:11:44.648Z,12.34
2019-05-21T06:13:55.640Z,12.36
2019-05-21T06:16:06.573Z,12.37
2019-05-21T06:18:17.449Z,12.33
2019-05-21T06:20:28.368Z,12.35
2019-05-21T06:22:39.280Z,12.33
2019-05-21T06:24:50.134Z,12.27
2019-05-21T06:27:01.070Z,12.26
2019-05-21T06:29:12.016Z,12.26
2019-05-21T06:31:22.851Z,12.27
2019-05-21T06:33:33.674Z,12.28
2019-05-21T06:35:44.821Z,12.27
2019-05-21T06:37:55.638Z,12.33
2019-05-21T06:40:08.702Z,12.30
2019-05-21T06:42:19.571Z,12.29
2019-05-21T06:44:30.514Z,12.28
2019-05-21T06:46:41.325Z,12.31
2019-05-21T06:48:52.165Z,12.31
2019-05-21T06:51:03.213Z,12.31
2019-05-21T06:53:14.034Z,12.35
2019-05-21T06:55:25.014Z,12.40
2019-05-21T06:57:35.822Z,12.41
2019-05-21T06:59:46.793Z,12.40
2019-05-21T07:01:57.704Z,12.39
2019-05-21T07:04:08.559Z,12.36
2019-05-21T07:06:19.390Z,12.36
2019-05-21T07:08:34.600Z,12.36
2019-05-21T07:10:43.117Z,12.41
2019-05-21T07:12:53.952Z,12.45
2019-05-21T07:15:05.253Z,12.46
2019-05-21T07:17:16.862Z,12.38
2019-05-21T07:19:27.715Z,12.34
2019-05-21T07:21:38.551Z,12.38
2019-05-21T07:23:49.484Z,12.42
2019-05-21T07:26:00.322Z,12.31
2019-05-21T07:28:11.350Z,12.33
2019-05-21T07:30:22.269Z,12.38
2019-05-21T07:32:33.103Z,12.36
2019-05-21T07:34:43.969Z,12.40
2019-05-21T07:36:54.885Z,12.46
2019-05-21T07:39:05.857Z,12.45
2019-05-21T07:41:20.068Z,12.42
2019-05-21T07:43:29.689Z,12.46
2019-05-21T07:45:40.612Z,12.45
2019-05-21T07:47:51.446Z,12.44
2019-05-21T07:50:04.071Z,12.39
2019-05-21T07:52:14.909Z,12.36
2019-05-21T07:54:28.022Z,12.39
2019-05-21T07:56:40.389Z,12.39
2019-05-21T07:58:51.383Z,12.46
2019-05-21T08:01:02.425Z,12.48
2019-05-21T08:03:13.257Z,12.47
2019-05-21T08:05:24.172Z,12.45
2019-05-21T08:07:35.109Z,12.42
2019-05-21T08:09:45.931Z,12.48
2019-05-21T08:11:56.759Z,12.49
2019-05-21T08:14:07.600Z,12.54
2019-05-21T08:16:18.548Z,12.49
2019-05-21T08:18:29.582Z,12.50
2019-05-21T08:20:40.490Z,12.53
2019-05-21T08:22:51.350Z,12.49
2019-05-21T08:25:05.251Z,12.56
2019-05-21T08:27:16.165Z,12.61
2019-05-21T08:29:27.022Z,12.64
2019-05-21T08:31:37.815Z,12.63
2019-05-21T08:33:48.671Z,12.70
2019-05-21T08:35:59.500Z,12.70
2019-05-21T08:38:10.454Z,12.69
2019-05-21T08:40:21.272Z,12.75
2019-05-21T08:42:32.234Z,12.78
2019-05-21T08:44:43.422Z,12.79
2019-05-21T08:46:54.403Z,12.79
2019-05-21T08:49:05.238Z,12.78
2019-05-21T08:51:16.062Z,12.76
2019-05-21T08:53:26.923Z,12.79
2019-05-21T08:55:37.830Z,12.77
2019-05-21T08:58:05.816Z,12.80
2019-05-21T09:00:03.906Z,12.82
2019-05-21T09:02:15.245Z,12.78
2019-05-21T09:04:45.011Z,12.80
2019-05-21T09:06:38.809Z,12.78
2019-05-21T09:08:49.654Z,12.79
2019-05-21T09:11:00.574Z,12.78
2019-05-21T09:13:11.634Z,12.80
2019-05-21T09:15:22.670Z,12.84
2019-05-21T09:17:33.591Z,12.82
2019-05-21T09:19:44.432Z,12.87
2019-05-21T09:21:55.369Z,12.90
2019-05-21T09:24:06.363Z,12.90
2019-05-21T09:26:19.155Z,12.84
2019-05-21T09:28:29.987Z,12.86
2019-05-21T09:30:40.842Z,12.80
2019-05-21T09:32:51.693Z,12.82
2019-05-21T09:35:04.691Z,12.83
2019-05-21T09:37:19.730Z,12.82
2019-05-21T09:39:28.315Z,12.84
2019-05-21T09:41:39.150Z,12.84
2019-05-21T09:43:50.012Z,12.85
2019-05-21T09:46:00.848Z,12.86
2019-05-21T09:48:11.670Z,12.91
2019-05-21T09:50:22.637Z,12.90
2019-05-21T09:52:33.478Z,12.87
2019-05-21T09:54:44.524Z,12.89
2019-05-21T09:56:55.432Z,12.84
2019-05-21T09:59:18.903Z,12.88
2019-05-21T10:01:34.136Z,12.89
2019-05-21T10:03:49.656Z,12.92
2019-05-21T10:06:00.653Z,12.92
2019-05-21T10:08:11.465Z,12.91
2019-05-21T10:10:22.378Z,12.94
2019-05-21T10:12:33.279Z,12.92
2019-05-21T10:14:44.106Z,12.94
2019-05-21T10:16:55.461Z,12.98
2019-05-21T10:19:06.319Z,13.00
2019-05-21T10:21:17.182Z,13.00
2019-05-21T10:23:28.058Z,13.02
2019-05-21T10:25:38.915Z,13.06
2019-05-21T10:27:49.791Z,13.07
2019-05-21T10:30:00.691Z,13.03
2019-05-21T10:32:11.562Z,13.05
2019-05-21T10:34:22.504Z,13.06
2019-05-21T10:36:33.373Z,13.05
2019-05-21T10:38:44.358Z,13.04
2019-05-21T10:40:55.164Z,13.03
2019-05-21T10:43:06.018Z,13.05
2019-05-21T10:45:16.878Z,13.01
2019-05-21T10:47:27.817Z,13.01
2019-05-21T10:49:38.645Z,12.97
2019-05-21T10:51:49.546Z,13.02
2019-05-21T10:54:00.982Z,13.02
2019-05-21T10:56:11.884Z,13.02
2019-05-21T10:58:22.737Z,13.06
2019-05-21T11:00:33.567Z,13.06
2019-05-21T11:02:55.579Z,13.07
2019-05-21T11:05:11.125Z,13.06
2019-05-21T11:07:22.422Z,13.04
2019-05-21T11:09:33.352Z,13.02
2019-05-21T11:11:45.259Z,13.00
2019-05-21T11:13:56.940Z,12.99
2019-05-21T11:16:07.885Z,13.02
2019-05-21T11:18:18.724Z,13.04
2019-05-21T11:20:29.681Z,13.01
2019-05-21T11:22:42.645Z,13.03
2019-05-21T11:24:53.474Z,13.03
2019-05-21T11:27:04.964Z,13.08
2019-05-21T11:29:15.934Z,13.11
2019-05-21T11:31:26.750Z,13.13
2019-05-21T11:33:37.607Z,13.07
2019-05-21T11:35:48.523Z,13.11
2019-05-21T11:37:59.496Z,13.09
2019-05-21T11:40:10.837Z,13.15
2019-05-21T11:42:21.650Z,13.11
2019-05-21T11:44:32.514Z,13.11
2019-05-21T11:46:43.451Z,13.15
2019-05-21T11:48:54.313Z,13.20
2019-05-21T11:51:07.034Z,13.23
2019-05-21T11:53:17.882Z,13.24
2019-05-21T11:55:28.712Z,13.28
2019-05-21T11:57:39.544Z,13.24
2019-05-21T11:59:50.411Z,13.25
2019-05-21T12:02:01.239Z,13.28
2019-05-21T12:04:12.104Z,13.32
2019-05-21T12:06:23.031Z,13.37
2019-05-21T12:08:33.893Z,13.35
2019-05-21T12:10:45.215Z,13.36
2019-05-21T12:12:56.039Z,13.35
2019-05-21T12:15:07.177Z,13.35
2019-05-21T12:17:18.019Z,13.35
2019-05-21T12:19:28.879Z,13.39
2019-05-21T12:21:41.654Z,13.37
2019-05-21T12:23:52.528Z,13.40
2019-05-21T12:26:03.463Z,13.34
2019-05-21T12:28:14.301Z,13.39
2019-05-21T12:30:25.145Z,13.41
2019-05-21T12:32:36.006Z,13.45
2019-05-21T12:34:46.862Z,13.45
2019-05-21T12:36:57.739Z,13.47
2019-05-21T12:39:14.084Z,13.51
2019-05-21T12:41:21.391Z,13.52
2019-05-21T12:43:32.332Z,13.49
2019-05-21T12:45:43.160Z,13.52
2019-05-21T12:47:54.012Z,13.48
2019-05-21T12:50:05.365Z,13.47
2019-05-21T12:52:16.232Z,13.50
2019-05-21T12:54:29.137Z,13.53
2019-05-21T12:56:41.967Z,13.51
2019-05-21T12:58:52.799Z,13.53
2019-05-21T13:01:03.742Z,13.56
2019-05-21T13:03:14.573Z,13.55
2019-05-21T13:05:25.538Z,13.53
2019-05-21T13:07:36.476Z,13.52
2019-05-21T13:09:47.325Z,13.56
2019-05-21T13:11:58.808Z,13.55
2019-05-21T13:14:09.634Z,13.59
2019-05-21T13:16:20.583Z,13.54
2019-05-21T13:18:31.413Z,13.58
2019-05-21T13:20:42.252Z,13.53
2019-05-21T13:22:53.096Z,13.51
2019-05-21T13:25:06.168Z,13.52
2019-05-21T13:27:17.120Z,13.56
2019-05-21T13:29:27.961Z,13.57
2019-05-21T13:31:38.920Z,13.58
2019-05-21T13:33:49.836Z,13.61
2019-05-21T13:36:00.712Z,13.64
2019-05-21T13:38:13.573Z,13.64
2019-05-21T13:40:24.850Z,13.61
2019-05-21T13:42:35.891Z,13.64
2019-05-21T13:44:46.710Z,13.67
2019-05-21T13:46:57.567Z,13.60
2019-05-21T13:49:08.408Z,13.59
2019-05-21T13:51:19.234Z,13.57
2019-05-21T13:53:30.120Z,13.53
2019-05-21T13:55:40.929Z,13.52
2019-05-21T13:57:51.798Z,13.52
2019-05-21T14:00:07.121Z,13.54
2019-05-21T14:02:18.067Z,13.58
2019-05-21T14:04:29.211Z,13.58
2019-05-21T14:06:40.125Z,13.59
2019-05-21T14:08:52.887Z,13.55
2019-05-21T14:11:03.932Z,13.61
2019-05-21T14:13:14.889Z,13.58
2019-05-21T14:15:25.827Z,13.59
2019-05-21T14:17:36.642Z,13.59
2019-05-21T14:19:47.546Z,13.57
2019-05-21T14:21:58.350Z,13.51
2019-05-21T14:24:09.292Z,13.50
2019-05-21T14:26:20.157Z,13.51
2019-05-21T14:28:34.319Z,13.57
2019-05-21T14:30:43.725Z,13.56
2019-05-21T14:32:54.578Z,13.60
2019-05-21T14:35:05.765Z,13.57
2019-05-21T14:37:16.680Z,13.58
2019-05-21T14:39:27.640Z,13.58
2019-05-21T14:41:38.711Z,13.54
2019-05-21T14:43:49.519Z,13.51
2019-05-21T14:46:00.413Z,13.56
2019-05-21T14:48:11.205Z,13.55
2019-05-21T14:50:22.077Z,13.53
2019-05-21T14:52:32.918Z,13.54
2019-05-21T14:54:43.770Z,13.57
2019-05-21T14:56:54.643Z,13.52
2019-05-21T14:59:05.562Z,13.51
2019-05-21T15:01:16.413Z,13.50
2019-05-21T15:03:29.524Z,13.50
2019-05-21T15:05:40.170Z,13.48
2019-05-21T15:07:51.132Z,13.46
2019-05-21T15:10:03.134Z,13.42
2019-05-21T15:12:14.090Z,13.43
2019-05-21T15:14:25.054Z,13.39
2019-05-21T15:16:36.155Z,13.44
2019-05-21T15:18:47.180Z,13.40
2019-05-21T15:21:00.049Z,13.34
2019-05-21T15:23:11.002Z,13.31
2019-05-21T15:25:21.968Z,13.36
2019-05-21T15:27:32.804Z,13.40
2019-05-21T15:29:43.640Z,13.36
2019-05-21T15:31:54.478Z,13.32
2019-05-21T15:34:05.579Z,13.31
2019-05-21T15:36:16.443Z,13.33
2019-05-21T15:38:27.278Z,13.27
2019-05-21T15:40:38.198Z,13.26
2019-05-21T15:42:52.727Z,13.23
2019-05-21T15:45:02.802Z,13.24
2019-05-21T15:47:15.584Z,13.21
2019-05-21T15:49:35.647Z,13.16
2019-05-21T15:51:39.232Z,13.14
2019-05-21T15:53:50.158Z,13.13
2019-05-21T15:56:01.152Z,13.10
2019-05-21T15:58:12.011Z,13.06
2019-05-21T16:00:23.073Z,13.08
2019-05-21T16:02:34.047Z,13.08
2019-05-21T16:04:44.908Z,13.12
2019-05-21T16:06:55.868Z,13.12
2019-05-21T16:09:07.649Z,13.12
2019-05-21T16:11:27.985Z,13.14
2019-05-21T16:13:31.515Z,13.12
2019-05-21T16:15:42.439Z,13.12
2019-05-21T16:17:53.359Z,13.13
2019-05-21T16:20:07.728Z,13.08
2019-05-21T16:22:18.563Z,13.06
2019-05-21T16:24:29.817Z,13.05
2019-05-21T16:26:40.727Z,13.07
2019-05-21T16:28:51.590Z,13.06
2019-05-21T16:31:02.531Z,13.08
2019-05-21T16:33:13.396Z,13.06
2019-05-21T16:35:24.364Z,13.09
2019-05-21T16:37:35.314Z,13.06
2019-05-21T16:39:46.273Z,13.08
2019-05-21T16:41:57.226Z,13.08
2019-05-21T16:44:08.190Z,13.11
2019-05-21T16:46:19.123Z,13.02
2019-05-21T16:48:29.980Z,13.11
2019-05-21T16:50:41.190Z,13.05
2019-05-21T16:52:52.013Z,13.03
2019-05-21T16:55:04.668Z,12.97
2019-05-21T16:57:15.518Z,12.99
2019-05-21T16:59:28.404Z,12.93
2019-05-21T17:01:39.420Z,12.93
2019-05-21T17:03:59.650Z,12.88
2019-05-21T17:06:03.414Z,12.90
2019-05-21T17:08:14.246Z,12.90
2019-05-21T17:10:27.022Z,12.93
2019-05-21T17:12:37.969Z,12.90
2019-05-21T17:14:50.000Z,12.93
2019-05-21T17:17:01.043Z,12.96
2019-05-21T17:19:11.938Z,12.92
2019-05-21T17:21:22.806Z,12.89
2019-05-21T17:23:33.655Z,12.89
2019-05-21T17:25:44.719Z,12.92
2019-05-21T17:27:55.548Z,12.85
2019-05-21T17:30:07.993Z,12.85
2019-05-21T17:32:19.885Z,12.80
2019-05-21T17:34:30.835Z,12.83
2019-05-21T17:36:41.748Z,12.86
2019-05-21T17:38:52.584Z,12.88
2019-05-21T17:41:03.676Z,12.87
2019-05-21T17:43:16.794Z,12.81
2019-05-21T17:45:27.768Z,12.84
2019-05-21T17:47:38.821Z,12.84
2019-05-21T17:49:49.753Z,12.83
2019-05-21T17:52:00.666Z,12.81
2019-05-21T17:54:11.529Z,12.85
2019-05-21T17:56:24.389Z,12.84
2019-05-21T17:58:35.354Z,12.83
2019-05-21T18:00:50.886Z,12.77
2019-05-21T18:03:01.899Z,12.79
2019-05-21T18:05:12.840Z,12.82
2019-05-21T18:07:23.869Z,12.80
2019-05-21T18:09:35.085Z,12.82
2019-05-21T18:11:45.998Z,12.74
2019-05-21T18:13:56.918Z,12.75
2019-05-21T18:16:08.219Z,12.75
2019-05-21T18:18:19.244Z,12.70
2019-05-21T18:20:30.380Z,12.74
2019-05-21T18:22:43.054Z,12.77
2019-05-21T18:24:53.901Z,12.80
2019-05-21T18:27:04.867Z,12.79
2019-05-21T18:29:16.104Z,12.75
2019-05-21T18:31:27.180Z,12.76
2019-05-21T18:33:38.284Z,12.75
2019-05-21T18:35:49.283Z,12.78
2019-05-21T18:38:00.373Z,12.75
2019-05-21T18:40:11.261Z,12.71
2019-05-21T18:42:22.815Z,12.71
2019-05-21T18:44:33.801Z,12.70
2019-05-21T18:46:44.813Z,12.69
2019-05-21T18:48:55.801Z,12.66
2019-05-21T18:51:06.698Z,12.74
2019-05-21T18:53:17.956Z,12.72
2019-05-21T18:55:28.885Z,12.75
2019-05-21T18:57:40.137Z,12.73
2019-05-21T18:59:51.046Z,12.71
2019-05-21T19:02:02.288Z,12.73
2019-05-21T19:04:13.186Z,12.69
2019-05-21T19:06:24.010Z,12.67
2019-05-21T19:08:35.114Z,12.69
2019-05-21T19:10:45.968Z,12.69
2019-05-21T19:13:00.451Z,12.68
2019-05-21T19:15:09.901Z,12.69
2019-05-21T19:17:34.854Z,12.64
2019-05-21T19:19:33.728Z,12.62
2019-05-21T19:21:44.713Z,12.64
2019-05-21T19:23:55.682Z,12.70
2019-05-21T19:26:06.616Z,12.69
2019-05-21T19:28:17.595Z,12.65
2019-05-21T19:30:28.931Z,12.62
2019-05-21T19:32:39.981Z,12.66
2019-05-21T19:34:52.941Z,12.60
2019-05-21T19:37:03.786Z,12.61
2019-05-21T19:39:14.767Z,12.59
2019-05-21T19:41:26.032Z,12.59
2019-05-21T19:43:36.883Z,12.60
2019-05-21T19:45:47.857Z,12.58
2019-05-21T19:48:00.801Z,12.55
2019-05-21T19:50:12.238Z,12.59
2019-05-21T19:52:23.263Z,12.57
2019-05-21T19:54:34.411Z,12.57
2019-05-21T19:56:45.251Z,12.54
2019-05-21T19:58:56.124Z,12.55
2019-05-21T20:01:07.821Z,12.55
2019-05-21T20:03:18.689Z,12.58
2019-05-21T20:05:29.928Z,12.61
2019-05-21T20:07:41.069Z,12.67
2019-05-21T20:09:53.315Z,12.59
2019-05-21T20:12:06.077Z,12.60
2019-05-21T20:14:17.461Z,12.64
2019-05-21T20:16:28.466Z,12.61
2019-05-21T20:18:39.374Z,12.68
2019-05-21T20:20:51.488Z,12.69
2019-05-21T20:23:08.148Z,12.60
2019-05-21T20:25:17.826Z,12.56
2019-05-21T20:27:29.683Z,12.59
2019-05-21T20:29:41.146Z,12.59
2019-05-21T20:31:52.151Z,12.58
2019-05-21T20:34:03.943Z,12.58
2019-05-21T20:36:14.800Z,12.58
2019-05-21T20:38:27.238Z,12.52
2019-05-21T20:40:39.516Z,12.53
2019-05-21T20:42:50.793Z,12.52
2019-05-21T20:45:02.346Z,12.51
2019-05-21T20:47:15.352Z,12.51
2019-05-21T20:49:26.770Z,12.52
2019-05-21T20:51:38.247Z,12.59
2019-05-21T20:53:49.078Z,12.56
2019-05-21T20:56:00.425Z,12.56
2019-05-21T20:58:11.273Z,12.55
2019-05-21T21:00:41.923Z,12.53
2019-05-21T21:02:53.919Z,12.56
2019-05-21T21:05:05.760Z,12.58
2019-05-21T21:07:17.232Z,12.59
2019-05-21T21:09:28.104Z,12.60
2019-05-21T21:11:39.309Z,12.55
2019-05-21T21:13:51.109Z,12.56
2019-05-21T21:16:02.551Z,12.54
2019-05-21T21:18:14.488Z,12.53
2019-05-21T21:20:25.324Z,12.58
2019-05-21T21:22:36.319Z,12.57
2019-05-21T21:24:47.545Z,12.48
2019-05-21T21:26:58.427Z,12.45
2019-05-21T21:29:09.256Z,12.51
2019-05-21T21:31:20.333Z,12.49
2019-05-21T21:33:31.216Z,12.45
2019-05-21T21:35:42.753Z,12.49
2019-05-21T21:37:53.898Z,12.50
2019-05-21T21:40:07.632Z,12.50
2019-05-21T21:42:18.800Z,12.48
2019-05-21T21:44:34.158Z,12.49
2019-05-21T21:46:42.367Z,12.48
2019-05-21T21:48:53.314Z,12.51
2019-05-21T21:51:04.852Z,12.51
2019-05-21T21:53:15.700Z,12.55
2019-05-21T21:55:26.737Z,12.58
2019-05-21T21:57:38.014Z,12.53
2019-05-21T21:59:49.096Z,12.52
2019-05-21T22:02:16.913Z,12.51
2019-05-21T22:04:30.377Z,12.49
2019-05-21T22:06:42.120Z,12.51
2019-05-21T22:08:53.071Z,12.52
2019-05-21T22:11:05.190Z,12.51
2019-05-21T22:13:16.334Z,12.49
2019-05-21T22:15:27.203Z,12.47
2019-05-21T22:17:38.018Z,12.51
2019-05-21T22:19:48.963Z,12.55
2019-05-21T22:22:00.376Z,12.53
2019-05-21T22:24:12.148Z,12.52
2019-05-21T22:26:23.208Z,12.52
2019-05-21T22:28:34.441Z,12.52
2019-05-21T22:30:45.486Z,12.48
2019-05-21T22:32:56.514Z,12.46
2019-05-21T22:35:07.350Z,12.51
2019-05-21T22:37:20.123Z,12.51
2019-05-21T22:39:32.036Z,12.48
2019-05-21T22:44:03.088Z,12.54
2019-05-21T22:46:14.144Z,12.52
2019-05-21T22:48:24.985Z,12.56
2019-05-21T22:50:35.847Z,12.54
2019-05-21T22:52:46.907Z,12.51
2019-05-21T22:55:07.958Z,12.50
2019-05-21T22:58:05.456Z,12.53
2019-05-21T23:00:16.734Z,12.60
2019-05-21T23:02:29.588Z,12.58
2019-05-21T23:04:40.543Z,12.56
2019-05-21T23:06:51.643Z,12.56
2019-05-21T23:09:04.562Z,12.57
2019-05-21T23:11:15.502Z,12.57
2019-05-21T23:13:26.349Z,12.52
2019-05-21T23:15:38.091Z,12.53
2019-05-21T23:17:49.522Z,12.54
2019-05-21T23:20:01.293Z,12.47
2019-05-21T23:22:13.739Z,12.50
2019-05-21T23:24:25.205Z,12.49
2019-05-21T23:26:37.004Z,12.52
2019-05-21T23:28:48.525Z,12.50
2019-05-21T23:31:01.254Z,12.50
2019-05-21T23:33:13.670Z,12.51
2019-05-21T23:35:25.112Z,12.49
2019-05-21T23:37:37.781Z,12.49
2019-05-21T23:39:52.601Z,12.50
2019-05-21T23:42:05.344Z,12.54
2019-05-21T23:44:17.049Z,12.51
2019-05-21T23:46:28.977Z,12.51
2019-05-21T23:48:40.529Z,12.52
2019-05-21T23:50:51.461Z,12.53
2019-05-21T23:53:03.508Z,12.55
2019-05-21T23:55:14.641Z,12.57
2019-05-21T23:57:26.489Z,12.56
2019-05-21T23:59:37.543Z,12.59
